Terminal Aerodrome Forecast
Issued by NWS Grand Forks, ND

Home | Current Version | Previous Version | Graphics & Text | Print | Product List | Glossary On
Versions: 1 2 3 4 5 6 7 8 9 10 11 12 13 14 15 16 17 18 19 20
075
FTUS43 KFGF 202203 AAA
TAFGFK
TAF AMD
KGFK 202203Z 2022/2118 28016G25KT P6SM FEW100
     FM210300 34015KT P6SM SCT140=

USA.gov is the U.S. government's official web portal to all federal, state and local government web resources and services.